YPPD/PHE METAR and TAF weather

Enter ICAO airport designator
Station Type Date Time Source
YPPD METAR 2020/02/19 14:30 UTC NOAA

YPPD 191430Z AUTO 35008KT 9999 // NCD 30/26 Q1007 RF00.0/000.0


Station Type Date Time Source
YPPD Decoded METAR 2020/02/19 14:30 UTC NOAA

Port Hedland Pardoo, Australia (YPPD) 20-06S 119-34E 10M
Feb 19, 2020 - 09:30 AM EST / 2020.02.19 1430 UTC
Wind: from the N (350 degrees) at 9 MPH (8 KT):0
Visibility: greater than 7 mile(s):0
Temperature: 86 F (30 C)
Heat index: 99.3 F (37.4 C):1
Dew Point: 78 F (26 C)
Relative Humidity: 79%
Pressure (altimeter): 29.74 in. Hg (1007 hPa)
ob: YPPD 191430Z AUTO 35008KT 9999 // NCD 30/26 Q1007 RF00.0/000.0
cycle: 14

Station Type Date Time Source
YPPD TAF 2020/02/19 12:35 UTC NOAA

TAF
AMD YPPD 191132Z 1912/2012 32008KT 9999 SCT015
FM192300 07012KT CAVOK
FM200500 35014KT CAVOK

Example: see airport list